Time;durP1;ratioP1;P1;durP2;ratioP2;P2;SDS_P1;SDS_P2;PMS_P1;PMS_P2;Temp;Humidity;BMP_temperature;BMP_pressure;BME280_temperature;BME280_humidity;BME280_pressure;Samples;Min_cycle;Max_cycle;Signal;HPM_P1;HPM_P2
2021/12/23 00:01:41;;;;;;;24.00;14.35;;;0.30;99.90;;;;;;5018306;28;20041;-90
2021/12/23 00:04:09;;;;;;;24.45;14.77;;;0.30;99.90;;;;;;5033898;28;20106;-90
2021/12/23 00:06:35;;;;;;;21.02;13.98;;;0.30;99.90;;;;;;5034296;28;20047;-90
2021/12/23 00:09:02;;;;;;;21.38;13.52;;;0.30;99.90;;;;;;5017740;28;20124;-90
2021/12/23 00:11:28;;;;;;;21.77;13.90;;;0.30;99.90;;;;;;5017348;28;20033;-90
2021/12/23 00:14:03;;;;;;;21.55;12.98;;;0.30;99.90;;;;;;5033180;28;20064;-91
2021/12/23 00:16:41;;;;;;;22.02;14.40;;;0.30;99.90;;;;;;5017506;28;20051;-90
2021/12/23 00:24:53;;;;;;;21.85;14.68;;;0.30;99.90;;;;;;5033566;28;20041;-90
2021/12/23 00:27:19;;;;;;;21.58;14.60;;;0.40;99.90;;;;;;5033937;28;20409;-91
2021/12/23 00:29:44;;;;;;;21.33;14.68;;;0.40;99.90;;;;;;5033945;28;20072;-90
2021/12/23 00:32:10;;;;;;;22.35;12.77;;;0.40;99.90;;;;;;5034130;28;20040;-90
2021/12/23 00:34:37;;;;;;;21.55;13.27;;;0.40;99.90;;;;;;5017475;28;20049;-90
2021/12/23 00:37:07;;;;;;;23.67;14.35;;;0.40;99.90;;;;;;5017265;28;20449;-90
2021/12/23 00:39:33;;;;;;;23.10;13.82;;;0.40;99.90;;;;;;5033905;28;20041;-90
2021/12/23 00:42:06;;;;;;;22.17;13.93;;;0.40;99.90;;;;;;5034031;28;20044;-90
2021/12/23 00:44:35;;;;;;;;;;;0.40;99.90;;;;;;5033068;28;20059;-90
2021/12/23 00:47:01;;;;;;;23.88;13.20;;;0.40;99.90;;;;;;5033923;28;20007;-90
2021/12/23 00:49:26;;;;;;;19.70;12.38;;;0.40;99.90;;;;;;5016511;28;20466;-90
2021/12/23 00:51:54;;;;;;;21.45;13.18;;;0.40;99.90;;;;;;5033490;28;20041;-90
2021/12/23 00:54:19;;;;;;;22.77;13.65;;;0.50;99.90;;;;;;5033571;28;20057;-90
2021/12/23 00:56:48;;;;;;;22.73;14.00;;;0.50;99.90;;;;;;5017123;28;20113;-90
2021/12/23 00:59:14;;;;;;;23.35;14.13;;;0.50;99.90;;;;;;5033667;28;20123;-90
2021/12/23 01:01:40;;;;;;;22.90;13.45;;;0.50;99.90;;;;;;5016935;28;20450;-90
2021/12/23 01:04:05;;;;;;;24.05;14.52;;;0.50;99.90;;;;;;5033095;28;20095;-90
2021/12/23 01:06:31;;;;;;;21.58;13.43;;;0.50;99.90;;;;;;5017317;28;20045;-90
2021/12/23 01:08:57;;;;;;;23.58;13.75;;;0.50;99.90;;;;;;5033403;28;20073;-90
2021/12/23 01:11:24;;;;;;;21.23;12.75;;;0.60;99.90;;;;;;5032360;28;20124;-90
2021/12/23 01:16:49;;;;;;;23.73;13.77;;;0.60;99.90;;;;;;5033312;28;20049;-90
2021/12/23 01:19:16;;;;;;;22.02;13.70;;;0.60;99.90;;;;;;5017329;28;20072;-90
2021/12/23 01:21:42;;;;;;;19.80;13.35;;;0.60;99.90;;;;;;5033189;28;20120;-90
2021/12/23 01:24:09;;;;;;;21.38;13.30;;;0.60;99.90;;;;;;5016300;28;20147;-90
2021/12/23 01:26:35;;;;;;;19.98;11.98;;;0.60;99.90;;;;;;5033815;28;20041;-90
2021/12/23 01:29:02;;;;;;;21.15;13.55;;;0.60;99.90;;;;;;5016276;28;20075;-90
2021/12/23 01:31:30;;;;;;;21.02;13.35;;;0.60;99.90;;;;;;5033170;28;20053;-90
2021/12/23 01:33:56;;;;;;;21.13;12.98;;;0.60;99.90;;;;;;5016275;28;20047;-90
2021/12/23 01:36:22;;;;;;;22.10;13.45;;;0.60;99.90;;;;;;5017015;28;20496;-90
2021/12/23 01:38:48;;;;;;;21.45;12.85;;;0.70;99.90;;;;;;5016836;28;20072;-90
2021/12/23 01:41:15;;;;;;;21.48;13.90;;;0.70;99.90;;;;;;5033235;28;20080;-90
2021/12/23 01:43:41;;;;;;;21.38;13.38;;;0.70;99.90;;;;;;5032660;28;20498;-90
2021/12/23 01:46:06;;;;;;;23.17;12.98;;;0.70;99.90;;;;;;5033083;28;20067;-90
2021/12/23 01:48:32;;;;;;;21.85;13.20;;;0.70;99.90;;;;;;5016492;28;20045;-90
2021/12/23 01:50:58;;;;;;;21.05;13.30;;;0.70;99.90;;;;;;5032896;28;20422;-89
2021/12/23 01:53:24;;;;;;;22.90;13.55;;;0.70;99.90;;;;;;5026817;28;20056;-90
2021/12/23 01:55:49;;;;;;;22.42;13.25;;;0.70;99.90;;;;;;5010960;28;20056;-90
2021/12/23 01:58:15;;;;;;;21.60;13.98;;;0.70;99.90;;;;;;5010918;28;20124;-90
2021/12/23 02:00:44;;;;;;;23.65;14.00;;;0.70;99.90;;;;;;5012108;28;20116;-89
2021/12/23 02:03:11;;;;;;;23.17;13.65;;;0.70;99.90;;;;;;5033889;28;20043;-90
2021/12/23 02:05:36;;;;;;;22.08;12.82;;;0.70;99.90;;;;;;5036539;28;20045;-90
2021/12/23 02:08:02;;;;;;;22.83;14.18;;;0.70;99.90;;;;;;5019528;28;20071;-90
2021/12/23 02:10:29;;;;;;;20.50;12.88;;;0.70;99.90;;;;;;5035430;28;20438;-90
2021/12/23 02:12:55;;;;;;;20.73;13.18;;;0.70;99.90;;;;;;5036461;28;20044;-89
2021/12/23 02:15:21;;;;;;;21.98;13.38;;;0.70;99.90;;;;;;5036490;28;20470;-89
2021/12/23 02:17:48;;;;;;;20.42;12.80;;;0.70;99.90;;;;;;5035816;28;20491;-90
2021/12/23 02:20:19;;;;;;;21.23;14.02;;;0.70;99.90;;;;;;5034616;28;20048;-90
2021/12/23 02:22:45;;;;;;;22.83;12.85;;;0.80;99.90;;;;;;5020144;28;20099;-90
2021/12/23 02:25:12;;;;;;;20.50;13.82;;;0.80;99.90;;;;;;5032719;28;20506;-90
2021/12/23 02:27:38;;;;;;;20.90;13.75;;;0.80;99.90;;;;;;5035612;28;20041;-90
2021/12/23 02:30:07;;;;;;;23.80;13.68;;;0.80;99.90;;;;;;5035664;28;20391;-90
2021/12/23 02:32:35;;;;;;;22.90;13.88;;;0.80;99.90;;;;;;5019665;28;20456;-89
2021/12/23 02:35:01;;;;;;;25.60;14.02;;;0.70;99.90;;;;;;5035534;28;20122;-90
2021/12/23 02:37:26;;;;;;;22.58;14.57;;;0.70;99.90;;;;;;5018879;28;20078;-90
2021/12/23 02:39:52;;;;;;;23.85;13.52;;;0.70;99.90;;;;;;5035885;28;20037;-90
2021/12/23 02:42:18;;;;;;;20.10;12.88;;;0.70;99.90;;;;;;5019263;28;20044;-90
2021/12/23 02:44:43;;;;;;;21.58;14.27;;;0.70;99.90;;;;;;5019130;28;20068;-90
2021/12/23 02:47:09;;;;;;;21.77;13.38;;;0.70;99.90;;;;;;5035699;28;20481;-90
2021/12/23 02:49:34;;;;;;;22.42;14.25;;;0.70;99.90;;;;;;5035867;28;20052;-90
2021/12/23 02:52:00;;;;;;;22.35;14.07;;;0.70;99.90;;;;;;5032562;28;20048;-90
2021/12/23 02:54:26;;;;;;;21.83;13.07;;;0.70;99.90;;;;;;5035052;28;20043;-89
2021/12/23 02:56:51;;;;;;;21.83;13.20;;;0.70;99.90;;;;;;5018883;28;20501;-90
2021/12/23 02:59:17;;;;;;;20.65;12.45;;;0.70;99.90;;;;;;5035437;28;20033;-90
2021/12/23 03:01:42;;;;;;;21.83;13.30;;;0.70;99.90;;;;;;5035690;28;20184;-89
2021/12/23 03:04:08;;;;;;;20.10;13.07;;;0.70;99.90;;;;;;5034018;28;20494;-90
2021/12/23 03:06:34;;;;;;;21.08;12.73;;;0.70;99.90;;;;;;5035587;28;20109;-89
2021/12/23 03:09:02;;;;;;;20.05;12.48;;;0.70;99.90;;;;;;5034977;28;20037;-90
2021/12/23 03:11:29;;;;;;;20.83;13.20;;;0.70;99.90;;;;;;5034738;28;20049;-90
2021/12/23 03:13:56;;;;;;;20.75;12.95;;;0.70;99.90;;;;;;5017950;28;20041;-90
2021/12/23 03:16:25;;;;;;;21.75;13.65;;;0.70;99.90;;;;;;5034832;28;20048;-90
2021/12/23 03:18:51;;;;;;;21.60;13.82;;;0.60;99.90;;;;;;5035313;28;20039;-90
2021/12/23 03:21:17;;;;;;;22.10;13.52;;;0.60;99.90;;;;;;5018476;28;20076;-90
2021/12/23 03:23:43;;;;;;;20.45;13.27;;;0.60;99.90;;;;;;5035300;28;20079;-90
2021/12/23 03:26:10;;;;;;;21.35;13.60;;;0.60;99.90;;;;;;5035032;28;20529;-90
2021/12/23 03:28:35;;;;;;;18.90;11.77;;;0.50;99.90;;;;;;5034954;28;20045;-89
2021/12/23 03:31:02;;;;;;;25.42;14.45;;;0.60;99.90;;;;;;5035266;28;20060;-89
2021/12/23 03:33:28;;;;;;;23.63;12.60;;;0.60;99.90;;;;;;5034353;28;20045;-90
2021/12/23 03:35:54;;;;;;;21.98;13.68;;;0.60;99.90;;;;;;5034191;28;20045;-90
2021/12/23 03:38:22;;;;;;;20.63;13.50;;;0.60;99.90;;;;;;5017919;28;20071;-90
2021/12/23 03:40:49;;;;;;;19.55;12.93;;;0.60;99.90;;;;;;5034867;28;20612;-90
2021/12/23 03:43:16;;;;;;;19.73;12.52;;;0.60;99.90;;;;;;5034630;28;20044;-89
2021/12/23 03:45:43;;;;;;;22.50;13.23;;;0.60;99.90;;;;;;5017808;28;20079;-90
2021/12/23 03:48:13;;;;;;;22.40;13.48;;;0.70;99.90;;;;;;5018430;28;20047;-89
2021/12/23 03:50:39;;;;;;;22.60;13.18;;;0.70;99.90;;;;;;5018079;28;20133;-90
2021/12/23 03:53:04;;;;;;;19.65;13.00;;;0.70;99.90;;;;;;5018388;28;20126;-89
2021/12/23 03:55:31;;;;;;;20.15;12.27;;;0.70;99.90;;;;;;5034025;28;20087;-90
2021/12/23 03:57:57;;;;;;;21.10;13.40;;;0.70;99.90;;;;;;5018032;28;20552;-90
2021/12/23 04:00:23;;;;;;;19.45;14.05;;;0.70;99.90;;;;;;5034523;28;20045;-90
2021/12/23 04:02:51;;;;;;;21.63;13.02;;;0.70;99.90;;;;;;5033163;28;20075;-89
2021/12/23 04:05:17;;;;;;;21.17;13.32;;;0.70;99.90;;;;;;5033949;28;20479;-90
2021/12/23 04:07:43;;;;;;;20.25;12.80;;;0.70;99.90;;;;;;5017718;28;20076;-90
2021/12/23 04:10:13;;;;;;;23.75;13.18;;;0.70;99.90;;;;;;5017848;28;20084;-89
2021/12/23 04:12:40;;;;;;;19.95;12.88;;;0.70;99.90;;;;;;5017533;28;20036;-90
2021/12/23 04:15:05;;;;;;;25.20;13.07;;;0.70;99.90;;;;;;5033269;28;20045;-90
2021/12/23 04:17:31;;;;;;;20.42;12.65;;;0.80;99.90;;;;;;5033940;28;20071;-89
2021/12/23 04:20:13;;;;;;;22.88;13.80;;;0.80;99.90;;;;;;5034038;28;20383;-90
2021/12/23 04:22:39;;;;;;;21.83;12.70;;;0.80;99.90;;;;;;5033835;28;20469;-90
2021/12/23 04:25:05;;;;;;;21.80;14.05;;;0.80;99.90;;;;;;5033631;28;20040;-90
2021/12/23 04:27:30;;;;;;;22.55;13.75;;;0.80;99.90;;;;;;5033954;28;20044;-89
2021/12/23 04:29:56;;;;;;;20.52;13.68;;;0.80;99.90;;;;;;5033500;28;20033;-90
2021/12/23 04:32:21;;;;;;;24.10;13.27;;;0.90;99.90;;;;;;5034043;28;20552;-90
2021/12/23 04:34:47;;;;;;;20.17;12.90;;;0.90;99.90;;;;;;5016693;28;20068;-90
2021/12/23 04:37:13;;;;;;;21.88;14.25;;;0.90;99.90;;;;;;5033581;28;20036;-90
2021/12/23 04:39:39;;;;;;;24.15;13.48;;;0.90;99.90;;;;;;5017488;28;20048;-89
2021/12/23 04:42:05;;;;;;;18.77;12.82;;;0.90;99.90;;;;;;5033828;28;20079;-90
2021/12/23 04:44:31;;;;;;;19.00;12.93;;;0.90;99.90;;;;;;5033304;28;20117;-90
2021/12/23 04:46:56;;;;;;;23.73;13.90;;;0.90;99.90;;;;;;5017363;28;20037;-90
2021/12/23 04:49:23;;;;;;;22.55;13.65;;;0.90;99.90;;;;;;5033782;28;20080;-89
2021/12/23 04:51:48;;;;;;;20.20;12.52;;;0.90;99.90;;;;;;5033922;28;20041;-90
2021/12/23 04:54:14;;;;;;;21.75;13.70;;;0.90;99.90;;;;;;5017118;28;20044;-90
2021/12/23 04:56:40;;;;;;;21.90;13.23;;;0.90;99.90;;;;;;5033122;28;20406;-90
2021/12/23 04:59:05;;;;;;;21.05;13.13;;;0.90;99.90;;;;;;5032994;28;20095;-90
2021/12/23 05:01:32;;;;;;;20.98;13.05;;;1.00;99.90;;;;;;5017072;28;20036;-89
2021/12/23 05:03:58;;;;;;;19.92;11.98;;;0.90;99.90;;;;;;5032186;28;20076;-89
2021/12/23 05:06:24;;;;;;;20.50;12.95;;;1.00;99.90;;;;;;5033454;28;20045;-90
2021/12/23 05:08:50;;;;;;;22.35;12.98;;;1.00;99.90;;;;;;5016933;28;20051;-89
2021/12/23 05:11:16;;;;;;;20.92;14.13;;;1.00;99.90;;;;;;5033375;28;20044;-90
2021/12/23 05:13:43;;;;;;;20.00;12.85;;;1.00;99.90;;;;;;5033171;28;20094;-90
2021/12/23 05:16:09;;;;;;;22.33;13.65;;;1.00;99.90;;;;;;5033109;28;20053;-90
2021/12/23 05:18:34;;;;;;;24.17;14.32;;;1.00;99.90;;;;;;5017098;28;20548;-89
2021/12/23 05:21:02;;;;;;;22.25;12.68;;;1.00;99.90;;;;;;5033689;28;20496;-89
2021/12/23 05:23:28;;;;;;;20.98;13.25;;;1.00;99.90;;;;;;5033320;28;20044;-89
2021/12/23 05:25:54;;;;;;;22.02;13.82;;;1.00;99.90;;;;;;5017190;28;20044;-90
2021/12/23 05:28:19;;;;;;;22.90;13.52;;;1.00;99.90;;;;;;5016474;28;20029;-90
2021/12/23 05:30:45;;;;;;;21.67;13.93;;;1.00;99.90;;;;;;5016514;28;20041;-90
2021/12/23 05:33:11;;;;;;;22.67;13.90;;;1.00;99.90;;;;;;5032755;28;20498;-90
2021/12/23 05:35:36;;;;;;;19.80;12.73;;;1.00;99.90;;;;;;5019798;28;20037;-89
2021/12/23 05:38:02;;;;;;;18.05;12.40;;;1.00;99.90;;;;;;5036575;28;20072;-90
2021/12/23 05:40:29;;;;;;;22.60;15.40;;;1.00;99.90;;;;;;5020815;28;20055;-90
2021/12/23 05:42:57;;;;;;;19.67;12.90;;;1.00;99.90;;;;;;5020300;28;20037;-89
2021/12/23 05:45:23;;;;;;;22.45;13.10;;;1.00;99.90;;;;;;5036702;28;20537;-89
2021/12/23 05:47:50;;;;;;;20.55;13.35;;;1.00;99.90;;;;;;5020687;28;20036;-89
2021/12/23 05:50:17;;;;;;;20.27;12.30;;;1.00;99.90;;;;;;5036894;28;20494;-90
2021/12/23 05:52:43;;;;;;;20.70;12.40;;;1.00;99.90;;;;;;5036746;28;20044;-90
2021/12/23 05:55:10;;;;;;;20.98;13.35;;;1.00;99.90;;;;;;5036420;28;20063;-90
2021/12/23 05:57:37;;;;;;;20.17;12.32;;;1.00;99.90;;;;;;5036305;28;20037;-90
2021/12/23 06:00:10;;;;;;;20.15;12.65;;;1.00;99.90;;;;;;5036943;28;20037;-89
2021/12/23 06:02:36;;;;;;;;;;;1.00;99.90;;;;;;5020448;28;20574;-89
2021/12/23 06:05:02;;;;;;;23.63;13.60;;;1.00;99.90;;;;;;5035542;28;19995;-89
2021/12/23 06:07:27;;;;;;;21.83;14.15;;;1.00;99.90;;;;;;5017498;28;20040;-89
2021/12/23 06:09:53;;;;;;;18.83;12.18;;;1.00;99.90;;;;;;5036535;28;20079;-90
2021/12/23 06:12:18;;;;;;;23.17;13.43;;;1.00;99.90;;;;;;5020074;28;20508;-90
2021/12/23 06:14:44;;;;;;;20.75;13.02;;;1.00;99.90;;;;;;5019979;28;20041;-89
2021/12/23 06:17:10;;;;;;;22.77;14.15;;;1.00;99.90;;;;;;5036216;28;20094;-90
2021/12/23 06:19:35;;;;;;;22.67;13.70;;;1.00;99.90;;;;;;5036347;28;20080;-89
2021/12/23 06:22:01;;;;;;;22.10;14.13;;;1.00;99.90;;;;;;5034556;28;20075;-90
2021/12/23 06:24:26;;;;;;;23.70;13.85;;;1.00;99.90;;;;;;5035805;28;20363;-89
2021/12/23 06:26:52;;;;;;;23.25;14.35;;;1.10;99.90;;;;;;5031632;28;20051;-90
2021/12/23 06:29:18;;;;;;;23.67;14.10;;;1.10;99.90;;;;;;5035176;28;20041;-89
2021/12/23 06:31:43;;;;;;;21.75;13.85;;;1.10;99.90;;;;;;5016585;28;20476;-89
2021/12/23 06:34:09;;;;;;;23.60;15.25;;;1.10;99.90;;;;;;5035239;28;20040;-89
2021/12/23 06:36:35;;;;;;;22.67;14.82;;;1.10;99.90;;;;;;5035389;28;20041;-90
2021/12/23 06:39:00;;;;;;;23.33;13.50;;;1.10;99.90;;;;;;5035775;28;20083;-90
2021/12/23 06:41:26;;;;;;;23.95;13.48;;;1.20;99.90;;;;;;5019780;28;20040;-90
2021/12/23 06:43:52;;;;;;;25.38;15.50;;;1.20;99.90;;;;;;5018716;28;20441;-90
2021/12/23 06:46:17;;;;;;;24.30;15.13;;;1.20;99.90;;;;;;5034862;28;20041;-89
2021/12/23 06:48:43;;;;;;;22.13;14.52;;;1.20;99.90;;;;;;5019108;28;20048;-90
2021/12/23 06:51:08;;;;;;;22.85;15.35;;;1.20;99.90;;;;;;5012822;28;20516;-90
2021/12/23 06:53:34;;;;;;;23.60;15.15;;;1.20;99.90;;;;;;5035088;28;20063;-90
2021/12/23 06:56:00;;;;;;;23.67;14.30;;;1.20;99.90;;;;;;5035082;28;20112;-89
2021/12/23 06:58:26;;;;;;;25.35;15.73;;;1.10;99.90;;;;;;5034419;28;20422;-90
2021/12/23 07:00:53;;;;;;;25.33;16.05;;;1.20;99.90;;;;;;5035740;28;20040;-89
2021/12/23 07:03:19;;;;;;;25.25;14.55;;;1.10;99.90;;;;;;5034281;28;20506;-89
2021/12/23 07:05:44;;;;;;;23.13;14.45;;;1.20;99.90;;;;;;5018422;28;20083;-89
2021/12/23 07:08:25;;;;;;;26.75;16.52;;;1.20;99.90;;;;;;5018285;28;20095;-89
2021/12/23 07:10:51;;;;;;;23.88;16.02;;;1.10;99.90;;;;;;5018651;28;20036;-89
2021/12/23 07:13:17;;;;;;;26.23;15.80;;;1.20;99.90;;;;;;5035303;28;20072;-90
2021/12/23 07:15:42;;;;;;;24.73;15.23;;;1.10;99.90;;;;;;5035185;28;20044;-90
2021/12/23 07:18:08;;;;;;;24.58;16.13;;;1.10;99.90;;;;;;5035006;28;20041;-90
2021/12/23 07:20:34;;;;;;;26.33;15.73;;;1.10;99.90;;;;;;5035091;28;20052;-90
2021/12/23 07:23:00;;;;;;;24.98;15.98;;;1.10;99.90;;;;;;5017025;28;20040;-90
2021/12/23 07:25:27;;;;;;;24.63;16.52;;;1.10;99.90;;;;;;5033853;28;20041;-90
2021/12/23 07:27:53;;;;;;;25.33;16.58;;;1.10;99.90;;;;;;5034220;28;20083;-90
2021/12/23 07:30:20;;;;;;;25.85;16.45;;;1.10;99.90;;;;;;5034519;28;20076;-89
2021/12/23 07:32:47;;;;;;;26.42;15.43;;;1.10;99.90;;;;;;5035217;28;20526;-90
2021/12/23 07:35:14;;;;;;;25.95;15.88;;;1.10;99.90;;;;;;5018251;28;20049;-89
2021/12/23 07:37:40;;;;;;;24.08;16.45;;;1.10;99.90;;;;;;5013337;28;20159;-90
2021/12/23 07:40:06;;;;;;;25.75;16.55;;;1.10;99.90;;;;;;5017883;28;20068;-89
2021/12/23 07:42:34;;;;;;;28.98;17.02;;;1.10;99.90;;;;;;5018091;28;20152;-89
2021/12/23 07:45:01;;;;;;;25.10;16.27;;;1.10;99.90;;;;;;5034104;28;20498;-89
2021/12/23 07:47:29;;;;;;;28.88;17.98;;;1.10;99.90;;;;;;5033488;28;20045;-89
2021/12/23 07:49:54;;;;;;;26.65;16.83;;;1.10;99.90;;;;;;5021501;28;20119;-90
2021/12/23 07:52:21;;;;;;;28.13;16.80;;;1.10;99.90;;;;;;5054013;28;20140;-89
2021/12/23 07:54:46;;;;;;;26.20;17.08;;;1.10;99.90;;;;;;5053658;28;20686;-90
2021/12/23 07:57:12;;;;;;;26.83;17.35;;;1.10;99.90;;;;;;5036166;28;20561;-90
2021/12/23 07:59:38;;;;;;;28.50;18.10;;;1.10;99.90;;;;;;5053809;28;20044;-89
2021/12/23 08:02:03;;;;;;;27.40;17.77;;;1.10;99.90;;;;;;5053877;28;20419;-89
2021/12/23 08:04:30;;;;;;;25.98;16.67;;;1.10;99.90;;;;;;5036923;28;20115;-89
2021/12/23 08:06:57;;;;;;;29.10;19.73;;;1.10;99.90;;;;;;5033432;28;20048;-90
2021/12/23 08:09:25;;;;;;;31.95;19.67;;;1.10;99.90;;;;;;5033240;28;20090;-90
2021/12/23 08:11:51;;;;;;;28.98;16.30;;;1.10;99.90;;;;;;5016719;28;20380;-91
2021/12/23 08:14:17;;;;;;;28.33;17.83;;;1.10;99.90;;;;;;5033218;28;20041;-90
2021/12/23 08:16:43;;;;;;;30.15;18.40;;;1.00;99.90;;;;;;5016987;28;20037;-90
2021/12/23 08:19:10;;;;;;;32.80;18.52;;;1.00;99.90;;;;;;5033269;28;20033;-90
2021/12/23 08:21:35;;;;;;;31.92;18.67;;;1.00;99.90;;;;;;5033485;28;20805;-90
2021/12/23 08:24:01;;;;;;;29.55;18.38;;;1.00;99.90;;;;;;5032397;28;20112;-91
2021/12/23 08:26:29;;;;;;;31.05;19.77;;;1.00;99.90;;;;;;5016873;28;20138;-92
2021/12/23 08:28:58;;;;;;;31.25;18.45;;;1.00;99.90;;;;;;5016361;28;20090;-90
2021/12/23 08:31:26;;;;;;;35.67;21.52;;;1.00;99.90;;;;;;5015941;28;20045;-90
2021/12/23 08:33:52;;;;;;;32.30;20.15;;;1.00;99.90;;;;;;5015461;28;20041;-89
2021/12/23 08:36:20;;;;;;;32.58;19.77;;;1.00;99.90;;;;;;5015564;28;20415;-89
2021/12/23 08:38:46;;;;;;;31.23;18.88;;;0.90;99.90;;;;;;5016638;28;20115;-91
2021/12/23 08:41:11;;;;;;;32.00;20.33;;;0.90;99.90;;;;;;5017244;28;20080;-89
2021/12/23 08:43:37;;;;;;;34.28;20.92;;;0.90;99.90;;;;;;5016808;28;20083;-90
2021/12/23 08:46:03;;;;;;;31.05;20.25;;;0.90;99.90;;;;;;5017067;28;20052;-91
2021/12/23 08:48:28;;;;;;;35.03;21.55;;;0.90;99.90;;;;;;5032701;28;20037;-90
2021/12/23 08:50:54;;;;;;;32.88;21.30;;;0.90;99.90;;;;;;5032804;28;20055;-90
2021/12/23 08:53:20;;;;;;;32.42;19.10;;;0.90;99.90;;;;;;5016714;28;20045;-89
2021/12/23 08:55:46;;;;;;;34.17;20.42;;;0.90;99.90;;;;;;5032971;28;20033;-90
2021/12/23 08:58:12;;;;;;;34.95;20.73;;;0.90;99.90;;;;;;5033340;28;20036;-90
2021/12/23 09:00:39;;;;;;;36.30;19.65;;;0.90;99.90;;;;;;5033214;28;20437;-90
2021/12/23 09:03:07;;;;;;;32.90;20.27;;;0.90;99.90;;;;;;5014904;28;20045;-90
2021/12/23 09:05:33;;;;;;;35.47;20.98;;;0.90;99.90;;;;;;5033152;28;20090;-90
2021/12/23 09:07:59;;;;;;;36.55;20.83;;;0.90;99.90;;;;;;5016821;28;20041;-90
2021/12/23 09:10:24;;;;;;;39.38;21.35;;;0.90;99.90;;;;;;5032540;28;20446;-90
2021/12/23 09:12:52;;;;;;;35.72;21.48;;;0.90;99.90;;;;;;5016613;28;20114;-90
2021/12/23 09:15:20;;;;;;;36.33;21.30;;;0.90;99.90;;;;;;5032822;28;20506;-90
2021/12/23 09:17:46;;;;;;;37.00;21.95;;;0.90;99.90;;;;;;5032521;28;20559;-89
2021/12/23 09:20:13;;;;;;;36.25;22.45;;;0.90;99.90;;;;;;5016669;28;20044;-90
2021/12/23 09:22:39;;;;;;;33.60;20.33;;;0.90;99.90;;;;;;5016426;28;20041;-90
2021/12/23 09:25:11;;;;;;;34.85;21.95;;;0.90;99.90;;;;;;5015712;28;20099;-89
2021/12/23 09:27:54;;;;;;;33.53;19.48;;;0.90;99.90;;;;;;5033065;28;20041;-91
2021/12/23 09:33:04;;;;;;;35.53;20.27;;;0.90;99.90;;;;;;5032039;28;20298;-89
2021/12/23 09:35:32;;;;;;;36.20;21.20;;;0.90;99.90;;;;;;5016235;28;20036;-90
2021/12/23 09:38:02;;;;;;;36.88;20.92;;;0.90;99.90;;;;;;5032700;28;20045;-90
2021/12/23 09:40:29;;;;;;;36.67;21.20;;;0.90;99.90;;;;;;5016438;28;20044;-89
2021/12/23 09:43:00;;;;;;;37.85;22.73;;;0.90;99.90;;;;;;5032709;28;20048;-89
2021/12/23 09:45:26;;;;;;;36.58;22.15;;;0.90;99.90;;;;;;5016228;28;20048;-89
2021/12/23 09:47:53;;;;;;;40.22;23.27;;;0.90;99.90;;;;;;5032729;28;20099;-90
2021/12/23 09:50:22;;;;;;;39.22;22.83;;;1.00;99.90;;;;;;5016213;28;20288;-90
2021/12/23 09:52:50;;;;;;;39.13;22.00;;;1.00;99.90;;;;;;5018285;28;20037;-88
2021/12/23 09:55:19;;;;;;;39.60;23.23;;;1.00;99.90;;;;;;5043643;28;20087;-89
2021/12/23 09:57:47;;;;;;;38.75;24.35;;;1.00;99.90;;;;;;5041997;28;20047;-89
2021/12/23 10:00:15;;;;;;;38.85;23.55;;;1.00;99.90;;;;;;5032702;28;20041;-90
2021/12/23 10:02:42;;;;;;;41.28;24.13;;;1.00;99.90;;;;;;5016564;28;20040;-89
2021/12/23 10:05:14;;;;;;;41.38;23.10;;;1.00;99.90;;;;;;5012482;28;20083;-89
2021/12/23 10:07:41;;;;;;;39.77;22.63;;;1.10;99.90;;;;;;5016086;28;20047;-88
2021/12/23 10:10:15;;;;;;;41.55;25.35;;;1.10;99.90;;;;;;5032501;28;20283;-90
2021/12/23 10:13:14;;;;;;;40.20;23.52;;;1.10;99.90;;;;;;5032605;28;20041;-89
2021/12/23 10:38:15;;;;;;;38.67;22.75;;;1.20;99.90;;;;;;5036661;28;20128;-92
2021/12/23 10:40:44;;;;;;;42.45;24.23;;;1.20;99.90;;;;;;5036599;28;20037;-90
2021/12/23 10:43:19;;;;;;;40.55;23.17;;;1.20;99.90;;;;;;5036516;28;20047;-91
2021/12/23 10:45:55;;;;;;;38.35;22.60;;;1.20;99.90;;;;;;5020394;28;20045;-91
2021/12/23 10:48:20;;;;;;;42.47;24.63;;;1.20;99.90;;;;;;5019879;28;20041;-91
2021/12/23 10:50:51;;;;;;;41.58;24.00;;;1.20;99.90;;;;;;5035941;28;20102;-91
2021/12/23 10:53:49;;;;;;;41.85;25.00;;;1.20;99.90;;;;;;5019661;28;20610;-91
2021/12/23 10:59:16;;;;;;;45.53;25.25;;;1.20;99.90;;;;;;5035936;28;20045;-89
2021/12/23 11:02:18;;;;;;;41.50;24.27;;;1.20;99.90;;;;;;5019059;28;20037;-91
2021/12/23 11:05:06;;;;;;;41.78;24.63;;;1.20;99.90;;;;;;5018008;28;20065;-91
2021/12/23 11:08:41;;;;;;;42.78;24.50;;;1.20;99.90;;;;;;5018895;28;20051;-91
2021/12/23 11:27:47;;;;;;;45.27;25.77;;;1.20;99.90;;;;;;5035503;28;20049;-91
2021/12/23 11:41:15;;;;;;;45.88;24.77;;;1.20;99.90;;;;;;5035783;28;20052;-91
2021/12/23 11:43:52;;;;;;;46.30;26.55;;;1.30;99.90;;;;;;5035082;28;20529;-90
2021/12/23 11:46:44;;;;;;;45.92;25.48;;;1.30;99.90;;;;;;5034748;28;20137;-91
2021/12/23 11:49:13;;;;;;;43.50;28.13;;;1.30;99.90;;;;;;5035173;28;20041;-90
2021/12/23 11:52:01;;;;;;;44.58;25.35;;;1.30;99.90;;;;;;5035248;28;20048;-90
2021/12/23 11:54:30;;;;;;;45.40;25.67;;;1.30;99.90;;;;;;5034245;28;20468;-90
2021/12/23 11:57:27;;;;;;;46.60;26.55;;;1.30;99.90;;;;;;5032413;28;20071;-91
2021/12/23 12:00:08;;;;;;;43.92;24.95;;;1.30;99.90;;;;;;5021771;28;20510;-90
2021/12/23 12:02:34;;;;;;;41.08;25.40;;;1.30;99.90;;;;;;5017554;28;20516;-90
2021/12/23 12:05:04;;;;;;;43.30;25.73;;;1.30;99.90;;;;;;5033045;28;20072;-90
2021/12/23 12:07:30;;;;;;;43.35;25.50;;;1.30;99.90;;;;;;5017449;28;20122;-91
2021/12/23 12:10:05;;;;;;;41.53;24.67;;;1.30;99.90;;;;;;5017503;28;20072;-90
2021/12/23 12:12:33;;;;;;;40.47;24.10;;;1.40;99.90;;;;;;5034534;28;20041;-91
2021/12/23 12:15:00;;;;;;;44.22;23.13;;;1.30;99.90;;;;;;5016450;28;20125;-90
2021/12/23 12:17:25;;;;;;;45.13;25.48;;;1.40;99.90;;;;;;5033905;28;20040;-90
2021/12/23 12:20:10;;;;;;;42.35;26.88;;;1.40;99.90;;;;;;5019572;28;20438;-90
2021/12/23 12:22:49;;;;;;;43.78;25.42;;;1.40;99.90;;;;;;5031061;28;20060;-90
2021/12/23 12:25:27;;;;;;;43.72;24.65;;;1.40;99.90;;;;;;5013838;28;20073;-90
2021/12/23 12:27:55;;;;;;;46.05;25.83;;;1.40;99.90;;;;;;5014256;28;20045;-90
2021/12/23 12:30:43;;;;;;;43.75;23.88;;;1.40;99.90;;;;;;5030190;28;20041;-90
2021/12/23 12:33:19;;;;;;;42.17;24.83;;;1.40;99.90;;;;;;4966757;28;20057;-90
2021/12/23 12:36:05;;;;;;;43.35;25.50;;;1.40;99.90;;;;;;5030184;28;20046;-90
2021/12/23 12:38:39;;;;;;;42.92;25.15;;;1.40;99.90;;;;;;5013669;28;20047;-90
2021/12/23 12:41:08;;;;;;;48.28;27.02;;;1.40;99.90;;;;;;5014665;28;20064;-91
2021/12/23 12:43:46;;;;;;;43.13;24.13;;;1.40;99.90;;;;;;5013820;28;20041;-91
2021/12/23 12:49:17;;;;;;;46.42;27.90;;;1.50;99.90;;;;;;5025139;28;20045;-91
2021/12/23 12:51:46;;;;;;;46.63;28.27;;;1.50;99.90;;;;;;5015026;28;20045;-90
2021/12/23 12:54:16;;;;;;;50.35;29.00;;;1.50;99.90;;;;;;5014012;28;20049;-91
2021/12/23 12:56:55;;;;;;;42.00;25.55;;;1.50;99.90;;;;;;5030966;28;20458;-90
2021/12/23 12:59:27;;;;;;;44.45;26.63;;;1.50;99.90;;;;;;5014404;28;20068;-91
2021/12/23 13:01:54;;;;;;;41.08;23.83;;;1.50;99.90;;;;;;5014223;28;20040;-91
2021/12/23 13:04:22;;;;;;;45.00;26.92;;;1.50;99.90;;;;;;5016652;28;20680;-91
2021/12/23 13:06:48;;;;;;;45.97;25.52;;;1.60;99.90;;;;;;5031106;28;20048;-92
2021/12/23 13:09:15;;;;;;;45.72;26.35;;;1.60;99.90;;;;;;5031466;28;20051;-91
2021/12/23 13:11:43;;;;;;;45.40;25.88;;;1.60;99.90;;;;;;5030253;28;20051;-91
2021/12/23 13:14:14;;;;;;;46.67;26.70;;;1.60;99.90;;;;;;5032608;28;20083;-91
2021/12/23 13:16:51;;;;;;;44.95;25.75;;;1.60;99.90;;;;;;5016781;28;20059;-91
2021/12/23 13:19:17;;;;;;;46.38;26.50;;;1.60;99.90;;;;;;5017652;28;20037;-91
2021/12/23 13:21:46;;;;;;;44.83;23.52;;;1.60;99.90;;;;;;5017045;28;20029;-91
2021/12/23 13:24:12;;;;;;;46.33;26.92;;;1.60;99.90;;;;;;5016307;28;20151;-91
2021/12/23 13:26:39;;;;;;;42.95;26.15;;;1.60;99.90;;;;;;5017120;28;20084;-92
2021/12/23 13:29:07;;;;;;;48.45;26.70;;;1.70;99.90;;;;;;5033188;28;20123;-90
2021/12/23 13:31:35;;;;;;;43.25;25.00;;;1.60;99.90;;;;;;5033914;28;20102;-91
2021/12/23 13:34:07;;;;;;;44.45;24.38;;;1.70;99.90;;;;;;5032835;28;20507;-91
2021/12/23 13:36:44;;;;;;;43.67;24.92;;;1.70;99.90;;;;;;5033588;28;20037;-91
2021/12/23 13:39:11;;;;;;;45.72;27.00;;;1.70;99.90;;;;;;5034179;28;20376;-91
2021/12/23 13:41:44;;;;;;;43.60;26.20;;;1.70;99.90;;;;;;5021164;28;21026;-91
2021/12/23 13:44:15;;;;;;;43.70;22.83;;;1.70;99.90;;;;;;5044045;28;20047;-91
2021/12/23 13:47:05;;;;;;;43.25;24.08;;;1.70;99.90;;;;;;5016985;28;20041;-91
2021/12/23 13:49:32;;;;;;;44.40;25.02;;;1.70;99.90;;;;;;5022007;28;20053;-91
2021/12/23 13:51:58;;;;;;;43.35;25.55;;;1.70;99.90;;;;;;5033426;28;20505;-91